createdAt,value
2022-09-12T00:00:30.000Z,13.75
2022-09-12T00:01:30.000Z,13.72
2022-09-12T00:02:30.000Z,13.72
2022-09-12T00:03:30.000Z,13.71
2022-09-12T00:04:30.000Z,13.68
2022-09-12T00:05:30.000Z,13.69
2022-09-12T00:06:30.000Z,13.65
2022-09-12T00:07:30.000Z,13.63
2022-09-12T00:08:30.000Z,13.63
2022-09-12T00:09:30.000Z,13.62
2022-09-12T00:10:29.000Z,13.59
2022-09-12T00:11:29.000Z,13.63
2022-09-12T00:12:29.000Z,13.61
2022-09-12T00:13:29.000Z,13.54
2022-09-12T00:14:29.000Z,13.55
2022-09-12T00:15:29.000Z,13.55
2022-09-12T00:16:29.000Z,13.59
2022-09-12T00:17:29.000Z,13.57
2022-09-12T00:18:29.000Z,13.59
2022-09-12T00:19:29.000Z,13.59
2022-09-12T00:20:29.000Z,13.62
2022-09-12T00:21:29.000Z,13.59
2022-09-12T00:22:29.000Z,13.61
2022-09-12T00:23:29.000Z,13.62
2022-09-12T00:24:29.000Z,13.62
2022-09-12T00:25:29.000Z,13.62
2022-09-12T00:26:29.000Z,13.65
2022-09-12T00:27:29.000Z,13.68
2022-09-12T00:28:29.000Z,13.66
2022-09-12T00:29:29.000Z,13.68
2022-09-12T00:30:29.000Z,13.71
2022-09-12T00:31:29.000Z,13.72
2022-09-12T00:32:29.000Z,13.75
2022-09-12T00:33:29.000Z,13.72
2022-09-12T00:34:29.000Z,13.75
2022-09-12T00:35:29.000Z,13.75
2022-09-12T00:36:29.000Z,13.76
2022-09-12T00:37:29.000Z,13.79
2022-09-12T00:38:29.000Z,13.79
2022-09-12T00:39:29.000Z,13.79
2022-09-12T00:40:29.000Z,13.81
2022-09-12T00:41:29.000Z,13.79
2022-09-12T00:42:29.000Z,13.80
2022-09-12T00:43:29.000Z,13.80
2022-09-12T00:44:29.000Z,13.81
2022-09-12T00:45:29.000Z,13.81
2022-09-12T00:46:29.000Z,13.83
2022-09-12T00:47:29.000Z,13.84
2022-09-12T00:48:29.000Z,13.84
2022-09-12T00:49:29.000Z,13.81
2022-09-12T00:50:29.000Z,13.83
2022-09-12T00:51:29.000Z,13.83
2022-09-12T00:52:29.000Z,13.86
2022-09-12T00:53:29.000Z,13.80
2022-09-12T00:54:29.000Z,13.84
2022-09-12T00:55:29.000Z,13.81
2022-09-12T00:56:29.000Z,13.79
2022-09-12T00:57:29.000Z,13.81
2022-09-12T00:58:29.000Z,13.80
2022-09-12T00:59:29.000Z,13.80
2022-09-12T01:00:29.000Z,13.79
2022-09-12T01:01:29.000Z,13.75
2022-09-12T01:02:29.000Z,13.73
2022-09-12T01:03:29.000Z,13.72
2022-09-12T01:04:29.000Z,13.68
2022-09-12T01:05:29.000Z,13.69
2022-09-12T01:06:29.000Z,13.66
2022-09-12T01:07:29.000Z,13.66
2022-09-12T01:08:29.000Z,13.61
2022-09-12T01:09:29.000Z,13.59
2022-09-12T01:10:29.000Z,13.59
2022-09-12T01:11:29.000Z,13.57
2022-09-12T01:12:29.000Z,13.57
2022-09-12T01:13:29.000Z,13.54
2022-09-12T01:14:29.000Z,13.55
2022-09-12T01:15:29.000Z,13.51
2022-09-12T01:16:29.000Z,13.51
2022-09-12T01:17:29.000Z,13.53
2022-09-12T01:18:29.000Z,13.51
2022-09-12T01:19:29.000Z,13.50
2022-09-12T01:20:29.000Z,13.53
2022-09-12T01:21:29.000Z,13.51
2022-09-12T01:22:29.000Z,13.50
2022-09-12T01:23:29.000Z,13.50
2022-09-12T01:24:28.000Z,13.51
2022-09-12T01:25:28.000Z,13.53
2022-09-12T01:26:28.000Z,13.48
2022-09-12T01:27:28.000Z,13.51
2022-09-12T01:28:28.000Z,13.53
2022-09-12T01:29:28.000Z,13.51
2022-09-12T01:30:28.000Z,13.53
2022-09-12T01:31:28.000Z,13.53
2022-09-12T01:32:28.000Z,13.53
2022-09-12T01:33:28.000Z,13.51
2022-09-12T01:34:28.000Z,13.48
2022-09-12T01:35:28.000Z,13.54
2022-09-12T01:36:28.000Z,13.50
2022-09-12T01:37:28.000Z,13.54
2022-09-12T01:38:28.000Z,13.50
2022-09-12T01:39:28.000Z,13.53
2022-09-12T01:40:28.000Z,13.53
2022-09-12T01:41:28.000Z,13.50
2022-09-12T01:42:28.000Z,13.51
2022-09-12T01:43:28.000Z,13.51
2022-09-12T01:44:28.000Z,13.51
2022-09-12T01:45:28.000Z,13.51
2022-09-12T01:46:28.000Z,13.50
2022-09-12T01:47:28.000Z,13.54
2022-09-12T01:48:28.000Z,13.54
2022-09-12T01:49:28.000Z,13.54
2022-09-12T01:50:28.000Z,13.54
2022-09-12T01:51:28.000Z,13.50
2022-09-12T01:52:28.000Z,13.53
2022-09-12T01:53:28.000Z,13.51
2022-09-12T01:54:28.000Z,13.55
2022-09-12T01:55:28.000Z,13.53
2022-09-12T01:56:28.000Z,13.53
2022-09-12T01:57:28.000Z,13.51
2022-09-12T01:58:28.000Z,13.50
2022-09-12T01:59:28.000Z,13.46
2022-09-12T02:00:28.000Z,13.47
2022-09-12T02:01:28.000Z,13.47
2022-09-12T02:02:28.000Z,13.43
2022-09-12T02:03:28.000Z,13.41
2022-09-12T02:04:28.000Z,13.38
2022-09-12T02:05:28.000Z,13.41
2022-09-12T02:06:28.000Z,13.39
2022-09-12T02:07:28.000Z,13.36
2022-09-12T02:08:28.000Z,13.35
2022-09-12T02:09:28.000Z,13.35
2022-09-12T02:10:28.000Z,13.31
2022-09-12T02:11:28.000Z,13.27
2022-09-12T02:12:28.000Z,13.25
2022-09-12T02:13:28.000Z,13.22
2022-09-12T02:14:28.000Z,13.21
2022-09-12T02:15:28.000Z,13.16
2022-09-12T02:16:28.000Z,13.16
2022-09-12T02:17:28.000Z,13.12
2022-09-12T02:18:28.000Z,13.13
2022-09-12T02:19:28.000Z,13.12
2022-09-12T02:20:28.000Z,13.09
2022-09-12T02:21:28.000Z,13.07
2022-09-12T02:22:28.000Z,13.03
2022-09-12T02:23:28.000Z,13.01
2022-09-12T02:24:28.000Z,12.96
2022-09-12T02:25:28.000Z,12.96
2022-09-12T02:26:28.000Z,12.94
2022-09-12T02:27:28.000Z,12.89
2022-09-12T02:28:28.000Z,12.87
2022-09-12T02:29:28.000Z,12.87
2022-09-12T02:30:28.000Z,12.80
2022-09-12T02:31:28.000Z,12.79
2022-09-12T02:32:28.000Z,12.77
2022-09-12T02:33:28.000Z,12.76
2022-09-12T02:34:28.000Z,12.73
2022-09-12T02:35:28.000Z,12.70
2022-09-12T02:36:28.000Z,12.70
2022-09-12T02:37:27.000Z,12.70
2022-09-12T02:38:27.000Z,12.69
2022-09-12T02:39:27.000Z,12.66
2022-09-12T02:40:27.000Z,12.62
2022-09-12T02:41:27.000Z,12.58
2022-09-12T02:42:27.000Z,12.58
2022-09-12T02:43:27.000Z,12.55
2022-09-12T02:44:27.000Z,12.54
2022-09-12T02:45:27.000Z,12.49
2022-09-12T02:46:27.000Z,12.48
2022-09-12T02:47:27.000Z,12.43
2022-09-12T02:48:27.000Z,12.41
2022-09-12T02:49:27.000Z,12.37
2022-09-12T02:50:27.000Z,12.34
2022-09-12T02:51:27.000Z,12.34
2022-09-12T02:52:27.000Z,12.30
2022-09-12T02:53:27.000Z,12.30
2022-09-12T02:54:27.000Z,12.30
2022-09-12T02:55:27.000Z,12.23
2022-09-12T02:56:27.000Z,12.23
2022-09-12T02:57:27.000Z,12.22
2022-09-12T02:58:27.000Z,12.21
2022-09-12T02:59:27.000Z,12.21
2022-09-12T03:00:27.000Z,12.22
2022-09-12T03:01:27.000Z,12.19
2022-09-12T03:02:27.000Z,12.18
2022-09-12T03:03:27.000Z,12.15
2022-09-12T03:04:27.000Z,12.18
2022-09-12T03:05:27.000Z,12.12
2022-09-12T03:06:27.000Z,12.08
2022-09-12T03:07:27.000Z,12.07
2022-09-12T03:08:27.000Z,12.01
2022-09-12T03:09:27.000Z,12.00
2022-09-12T03:10:27.000Z,11.98
2022-09-12T03:11:27.000Z,11.97
2022-09-12T03:12:27.000Z,11.97
2022-09-12T03:13:27.000Z,11.97
2022-09-12T03:14:27.000Z,11.96
2022-09-12T03:15:27.000Z,11.96
2022-09-12T03:16:27.000Z,11.94
2022-09-12T03:17:27.000Z,11.96
2022-09-12T03:18:27.000Z,11.93
2022-09-12T03:19:27.000Z,11.90
2022-09-12T03:20:27.000Z,11.90
2022-09-12T03:21:27.000Z,11.87
2022-09-12T03:22:27.000Z,11.88
2022-09-12T03:23:27.000Z,11.85
2022-09-12T03:24:27.000Z,11.82
2022-09-12T03:25:27.000Z,11.84
2022-09-12T03:26:27.000Z,11.81
2022-09-12T03:27:27.000Z,11.79
2022-09-12T03:28:27.000Z,11.79
2022-09-12T03:29:27.000Z,11.72
2022-09-12T03:30:27.000Z,11.72
2022-09-12T03:31:27.000Z,11.72
2022-09-12T03:32:27.000Z,11.66
2022-09-12T03:33:27.000Z,11.69
2022-09-12T03:34:27.000Z,11.64
2022-09-12T03:35:27.000Z,11.62
2022-09-12T03:36:27.000Z,11.63
2022-09-12T03:37:27.000Z,11.60
2022-09-12T03:38:27.000Z,11.57
2022-09-12T03:39:27.000Z,11.56
2022-09-12T03:40:27.000Z,11.56
2022-09-12T03:41:27.000Z,11.54
2022-09-12T03:42:27.000Z,11.51
2022-09-12T03:43:27.000Z,11.51
2022-09-12T03:44:27.000Z,11.49
2022-09-12T03:45:27.000Z,11.44
2022-09-12T03:46:27.000Z,11.42
2022-09-12T03:47:27.000Z,11.39
2022-09-12T03:48:27.000Z,11.38
2022-09-12T03:49:27.000Z,11.31
2022-09-12T03:50:27.000Z,11.31
2022-09-12T03:51:26.000Z,11.30
2022-09-12T03:52:26.000Z,11.30
2022-09-12T03:53:26.000Z,11.30
2022-09-12T03:54:26.000Z,11.27
2022-09-12T03:55:26.000Z,11.27
2022-09-12T03:56:26.000Z,11.27
2022-09-12T03:57:26.000Z,11.26
2022-09-12T03:58:26.000Z,11.26
2022-09-12T03:59:26.000Z,11.23
2022-09-12T04:00:26.000Z,11.24
2022-09-12T04:01:26.000Z,11.26
2022-09-12T04:02:26.000Z,11.27
2022-09-12T04:03:26.000Z,11.27
2022-09-12T04:04:26.000Z,11.31
2022-09-12T04:05:26.000Z,11.30
2022-09-12T04:06:26.000Z,11.30
2022-09-12T04:07:26.000Z,11.31
2022-09-12T04:08:26.000Z,11.28
2022-09-12T04:09:26.000Z,11.31
2022-09-12T04:10:26.000Z,11.35
2022-09-12T04:11:26.000Z,11.31
2022-09-12T04:12:26.000Z,11.31
2022-09-12T04:13:26.000Z,11.36
2022-09-12T04:14:26.000Z,11.35
2022-09-12T04:15:26.000Z,11.35
2022-09-12T04:16:26.000Z,11.35
2022-09-12T04:17:26.000Z,11.39
2022-09-12T04:18:26.000Z,11.38
2022-09-12T04:19:26.000Z,11.41
2022-09-12T04:20:26.000Z,11.45
2022-09-12T04:21:26.000Z,11.41
2022-09-12T04:22:26.000Z,11.48
2022-09-12T04:23:26.000Z,11.49
2022-09-12T04:24:26.000Z,11.48
2022-09-12T04:25:26.000Z,11.46
2022-09-12T04:26:26.000Z,11.53
2022-09-12T04:27:26.000Z,11.53
2022-09-12T04:28:26.000Z,11.59
2022-09-12T04:29:26.000Z,11.62
2022-09-12T04:30:26.000Z,11.62
2022-09-12T04:31:26.000Z,11.66
2022-09-12T04:32:26.000Z,11.74
2022-09-12T04:33:26.000Z,11.81
2022-09-12T04:34:26.000Z,11.77
2022-09-12T04:35:26.000Z,11.81
2022-09-12T04:36:26.000Z,11.87
2022-09-12T04:37:26.000Z,11.84
2022-09-12T04:38:26.000Z,11.84
2022-09-12T04:39:26.000Z,11.84
2022-09-12T04:40:26.000Z,11.85
2022-09-12T04:41:26.000Z,11.84
2022-09-12T04:42:26.000Z,11.87
2022-09-12T04:43:26.000Z,11.90
2022-09-12T04:44:26.000Z,11.93
2022-09-12T04:45:26.000Z,11.90
2022-09-12T04:46:26.000Z,11.88
2022-09-12T04:47:26.000Z,11.85
2022-09-12T04:48:26.000Z,11.82
2022-09-12T04:49:26.000Z,11.84
2022-09-12T04:50:26.000Z,11.81
2022-09-12T04:51:26.000Z,11.81
2022-09-12T04:52:26.000Z,11.81
2022-09-12T04:53:26.000Z,11.84
2022-09-12T04:54:26.000Z,11.81
2022-09-12T04:55:26.000Z,11.82
2022-09-12T04:56:26.000Z,11.78
2022-09-12T04:57:26.000Z,11.79
2022-09-12T04:58:26.000Z,11.77
2022-09-12T04:59:26.000Z,11.77
2022-09-12T05:00:26.000Z,11.78
2022-09-12T05:01:26.000Z,11.78
2022-09-12T05:02:26.000Z,11.74
2022-09-12T05:03:26.000Z,11.70
2022-09-12T05:04:26.000Z,11.75
2022-09-12T05:05:25.000Z,11.72
2022-09-12T05:06:25.000Z,11.72
2022-09-12T05:07:25.000Z,11.70
2022-09-12T05:08:25.000Z,11.72
2022-09-12T05:09:25.000Z,11.74
2022-09-12T05:10:25.000Z,11.74
2022-09-12T05:11:25.000Z,11.69
2022-09-12T05:12:25.000Z,11.72
2022-09-12T05:13:25.000Z,11.72
2022-09-12T05:14:25.000Z,11.70
2022-09-12T05:15:25.000Z,11.72
2022-09-12T05:16:25.000Z,11.74
2022-09-12T05:17:25.000Z,11.77
2022-09-12T05:18:25.000Z,11.75
2022-09-12T05:19:25.000Z,11.77
2022-09-12T05:20:25.000Z,11.77
2022-09-12T05:21:25.000Z,11.77
2022-09-12T05:22:25.000Z,11.74
2022-09-12T05:23:25.000Z,11.77
2022-09-12T05:24:25.000Z,11.74
2022-09-12T05:25:25.000Z,11.78
2022-09-12T05:26:25.000Z,11.79
2022-09-12T05:27:25.000Z,11.79
2022-09-12T05:28:25.000Z,11.79
2022-09-12T05:29:25.000Z,11.84
2022-09-12T05:30:25.000Z,11.79
2022-09-12T05:31:25.000Z,11.81
2022-09-12T05:32:25.000Z,11.85
2022-09-12T05:33:25.000Z,11.87
2022-09-12T05:34:25.000Z,11.88
2022-09-12T05:35:25.000Z,11.96
2022-09-12T05:36:25.000Z,11.96
2022-09-12T05:37:25.000Z,12.00
2022-09-12T05:38:25.000Z,12.01
2022-09-12T05:39:25.000Z,12.01
2022-09-12T05:40:25.000Z,12.05
2022-09-12T05:41:25.000Z,12.04
2022-09-12T05:42:25.000Z,12.07
2022-09-12T05:43:25.000Z,12.13
2022-09-12T05:44:25.000Z,12.13
2022-09-12T05:45:25.000Z,12.19
2022-09-12T05:46:25.000Z,12.19
2022-09-12T05:47:25.000Z,12.22
2022-09-12T05:48:25.000Z,12.29
2022-09-12T05:49:25.000Z,12.30
2022-09-12T05:50:25.000Z,12.33
2022-09-12T05:51:25.000Z,12.34
2022-09-12T05:52:25.000Z,12.41
2022-09-12T05:53:25.000Z,12.44
2022-09-12T05:54:25.000Z,12.51
2022-09-12T05:55:25.000Z,12.52
2022-09-12T05:56:25.000Z,12.59
2022-09-12T05:57:25.000Z,12.66
2022-09-12T05:58:25.000Z,12.71
2022-09-12T05:59:25.000Z,12.77
2022-09-12T06:00:25.000Z,12.81
2022-09-12T06:01:25.000Z,12.91
2022-09-12T06:02:25.000Z,12.91
2022-09-12T06:03:25.000Z,12.95
2022-09-12T06:04:25.000Z,13.04
2022-09-12T06:05:25.000Z,13.10
2022-09-12T06:06:25.000Z,13.09
2022-09-12T06:07:25.000Z,13.13
2022-09-12T06:08:25.000Z,13.21
2022-09-12T06:09:25.000Z,13.22
2022-09-12T06:10:25.000Z,13.22
2022-09-12T06:11:25.000Z,13.27
2022-09-12T06:12:25.000Z,13.27
2022-09-12T06:13:25.000Z,13.32
2022-09-12T06:14:25.000Z,13.36
2022-09-12T06:15:25.000Z,13.44
2022-09-12T06:16:25.000Z,13.46
2022-09-12T06:17:25.000Z,13.48
2022-09-12T06:18:25.000Z,13.48
2022-09-12T06:19:24.000Z,13.51
2022-09-12T06:20:24.000Z,13.55
2022-09-12T06:21:24.000Z,13.54
2022-09-12T06:22:24.000Z,13.59
2022-09-12T06:23:24.000Z,13.62
2022-09-12T06:24:24.000Z,13.66
2022-09-12T06:25:24.000Z,13.69
2022-09-12T06:26:24.000Z,13.71
2022-09-12T06:27:24.000Z,13.73
2022-09-12T06:28:24.000Z,13.79
2022-09-12T06:29:24.000Z,13.84
2022-09-12T06:30:24.000Z,13.80
2022-09-12T06:31:24.000Z,13.87
2022-09-12T06:32:24.000Z,13.86
2022-09-12T06:33:24.000Z,13.93
2022-09-12T06:34:24.000Z,13.98
2022-09-12T06:35:24.000Z,13.96
2022-09-12T06:36:24.000Z,13.99
2022-09-12T06:37:24.000Z,14.04
2022-09-12T06:38:24.000Z,14.05
2022-09-12T06:39:24.000Z,14.06
2022-09-12T06:40:24.000Z,14.08
2022-09-12T06:41:24.000Z,14.12
2022-09-12T06:42:24.000Z,14.09
2022-09-12T06:43:24.000Z,14.11
2022-09-12T06:44:24.000Z,14.13
2022-09-12T06:45:24.000Z,14.16
2022-09-12T06:46:24.000Z,14.21
2022-09-12T06:47:24.000Z,14.24
2022-09-12T06:48:24.000Z,14.31
2022-09-12T06:49:24.000Z,14.36
2022-09-12T06:50:24.000Z,14.44
2022-09-12T06:51:24.000Z,14.48
2022-09-12T06:52:24.000Z,14.60
2022-09-12T06:53:24.000Z,14.63
2022-09-12T06:54:24.000Z,14.71
2022-09-12T06:55:24.000Z,14.80
2022-09-12T06:56:24.000Z,14.87
2022-09-12T06:57:24.000Z,14.90
2022-09-12T06:58:24.000Z,14.97
2022-09-12T06:59:24.000Z,14.98
2022-09-12T07:00:24.000Z,15.03
2022-09-12T07:01:24.000Z,15.05
2022-09-12T07:02:24.000Z,15.12
2022-09-12T07:03:24.000Z,15.12
2022-09-12T07:04:24.000Z,15.18
2022-09-12T07:05:24.000Z,15.20
2022-09-12T07:06:24.000Z,15.28
2022-09-12T07:07:24.000Z,15.34
2022-09-12T07:08:24.000Z,15.38
2022-09-12T07:09:24.000Z,15.46
2022-09-12T07:10:24.000Z,15.48
2022-09-12T07:11:24.000Z,15.46
2022-09-12T07:12:24.000Z,15.51
2022-09-12T07:13:24.000Z,15.48
2022-09-12T07:14:24.000Z,15.49
2022-09-12T07:15:24.000Z,15.48
2022-09-12T07:16:24.000Z,15.48
2022-09-12T07:17:24.000Z,15.44
2022-09-12T07:18:24.000Z,15.40
2022-09-12T07:19:24.000Z,15.35
2022-09-12T07:20:24.000Z,15.33
2022-09-12T07:21:24.000Z,15.33
2022-09-12T07:22:24.000Z,15.33
2022-09-12T07:23:24.000Z,15.34
2022-09-12T07:24:24.000Z,15.37
2022-09-12T07:25:24.000Z,15.38
2022-09-12T07:26:24.000Z,15.41
2022-09-12T07:27:24.000Z,15.43
2022-09-12T07:28:24.000Z,15.46
2022-09-12T07:29:24.000Z,15.43
2022-09-12T07:30:24.000Z,15.52
2022-09-12T07:31:24.000Z,15.53
2022-09-12T07:32:23.000Z,15.55
2022-09-12T07:33:23.000Z,15.58
2022-09-12T07:34:23.000Z,15.62
2022-09-12T07:35:23.000Z,15.62
2022-09-12T07:36:23.000Z,15.64
2022-09-12T07:37:23.000Z,15.67
2022-09-12T07:38:23.000Z,15.70
2022-09-12T07:39:23.000Z,15.73
2022-09-12T07:40:23.000Z,15.78
2022-09-12T07:41:23.000Z,15.80
2022-09-12T07:42:23.000Z,15.81
2022-09-12T07:43:23.000Z,15.86
2022-09-12T07:44:23.000Z,15.91
2022-09-12T07:45:23.000Z,15.92
2022-09-12T07:46:23.000Z,15.93
2022-09-12T07:47:23.000Z,15.98
2022-09-12T07:48:23.000Z,15.98
2022-09-12T07:49:23.000Z,16.04
2022-09-12T07:50:23.000Z,16.07
2022-09-12T07:51:23.000Z,16.13
2022-09-12T07:52:23.000Z,16.22
2022-09-12T07:53:23.000Z,16.27
2022-09-12T07:54:23.000Z,16.32
2022-09-12T07:54:23.000Z,16.32
2022-09-12T07:55:23.000Z,16.37
2022-09-12T07:55:23.000Z,16.37
2022-09-12T07:56:23.000Z,16.37
2022-09-12T07:56:23.000Z,16.37
2022-09-12T07:57:23.000Z,16.44
2022-09-12T07:57:23.000Z,16.44
2022-09-12T07:58:23.000Z,16.47
2022-09-12T07:58:23.000Z,16.47
2022-09-12T07:59:23.000Z,16.50
2022-09-12T08:00:23.000Z,16.54
2022-09-12T08:01:23.000Z,16.55
2022-09-12T08:02:23.000Z,16.62
2022-09-12T08:03:23.000Z,16.63
2022-09-12T08:04:23.000Z,16.66
2022-09-12T08:05:23.000Z,16.67
2022-09-12T08:06:23.000Z,16.75
2022-09-12T08:07:23.000Z,16.82
2022-09-12T08:08:23.000Z,17.03
2022-09-12T08:09:23.000Z,17.42
2022-09-12T08:10:23.000Z,17.94
2022-09-12T08:11:23.000Z,18.47
2022-09-12T08:12:23.000Z,18.86
2022-09-12T08:13:23.000Z,19.40
2022-09-12T08:14:23.000Z,19.89
2022-09-12T08:15:23.000Z,20.30
2022-09-12T08:16:23.000Z,20.79
2022-09-12T08:17:23.000Z,21.11
2022-09-12T08:18:23.000Z,21.37
2022-09-12T08:19:23.000Z,21.70
2022-09-12T08:20:23.000Z,22.04
2022-09-12T08:21:23.000Z,22.29
2022-09-12T08:22:23.000Z,22.54
2022-09-12T08:23:23.000Z,22.75
2022-09-12T08:24:23.000Z,22.84
2022-09-12T08:25:23.000Z,23.18
2022-09-12T08:26:23.000Z,23.39
2022-09-12T08:27:23.000Z,23.64
2022-09-12T08:28:23.000Z,24.00
2022-09-12T08:29:23.000Z,24.24
2022-09-12T08:30:23.000Z,24.46
2022-09-12T08:31:23.000Z,24.67
2022-09-12T08:32:23.000Z,24.87
2022-09-12T08:33:23.000Z,24.99
2022-09-12T08:34:23.000Z,25.05
2022-09-12T08:35:23.000Z,25.09
2022-09-12T08:36:23.000Z,25.19
2022-09-12T08:37:23.000Z,25.16
2022-09-12T08:38:23.000Z,25.16
2022-09-12T08:39:23.000Z,25.04
2022-09-12T08:40:23.000Z,24.93
2022-09-12T08:41:23.000Z,24.94
2022-09-12T08:42:23.000Z,25.11
2022-09-12T08:43:23.000Z,25.38
2022-09-12T08:44:23.000Z,25.61
2022-09-12T08:45:22.000Z,25.67
2022-09-12T08:46:22.000Z,25.61
2022-09-12T08:47:22.000Z,25.53
2022-09-12T08:48:22.000Z,25.59
2022-09-12T08:49:22.000Z,25.60
2022-09-12T08:50:22.000Z,25.74
2022-09-12T08:51:22.000Z,25.82
2022-09-12T08:52:22.000Z,25.91
2022-09-12T08:53:22.000Z,26.04
2022-09-12T08:54:22.000Z,26.16
2022-09-12T08:55:22.000Z,26.24
2022-09-12T08:56:22.000Z,26.39
2022-09-12T08:57:22.000Z,26.49
2022-09-12T08:58:22.000Z,26.72
2022-09-12T08:59:22.000Z,26.79
2022-09-12T09:00:22.000Z,26.94
2022-09-12T09:01:22.000Z,27.09
2022-09-12T09:02:22.000Z,27.20
2022-09-12T09:03:22.000Z,27.23
2022-09-12T09:04:22.000Z,27.23
2022-09-12T09:05:22.000Z,27.20
2022-09-12T09:06:22.000Z,27.21
2022-09-12T09:07:22.000Z,27.31
2022-09-12T09:08:22.000Z,27.33
2022-09-12T09:09:22.000Z,27.15
2022-09-12T09:10:22.000Z,27.21
2022-09-12T09:11:22.000Z,26.97
2022-09-12T09:12:22.000Z,26.54
2022-09-12T09:13:22.000Z,26.19
2022-09-12T09:14:22.000Z,26.19
2022-09-12T09:15:22.000Z,25.89
2022-09-12T09:16:22.000Z,25.51
2022-09-12T09:17:22.000Z,25.09
2022-09-12T09:18:22.000Z,24.82
2022-09-12T09:19:22.000Z,24.31
2022-09-12T09:20:22.000Z,23.77
2022-09-12T09:21:22.000Z,23.32
2022-09-12T09:22:22.000Z,23.00
2022-09-12T09:23:22.000Z,22.69
2022-09-12T09:24:22.000Z,22.39
2022-09-12T09:25:22.000Z,22.12
2022-09-12T09:26:22.000Z,21.81
2022-09-12T09:27:22.000Z,21.55
2022-09-12T09:28:22.000Z,21.38
2022-09-12T09:29:22.000Z,21.61
2022-09-12T09:30:22.000Z,22.05
2022-09-12T09:31:22.000Z,22.42
2022-09-12T09:32:22.000Z,22.69
2022-09-12T09:33:22.000Z,22.45
2022-09-12T09:34:22.000Z,22.46
2022-09-12T09:35:22.000Z,22.67
2022-09-12T09:36:22.000Z,22.84
2022-09-12T09:37:22.000Z,22.82
2022-09-12T09:38:22.000Z,22.86
2022-09-12T09:39:22.000Z,23.19
2022-09-12T09:40:22.000Z,23.53
2022-09-12T09:41:22.000Z,23.74
2022-09-12T09:42:22.000Z,23.99
2022-09-12T09:43:22.000Z,24.12
2022-09-12T09:44:22.000Z,24.09
2022-09-12T09:45:22.000Z,24.24
2022-09-12T09:46:22.000Z,24.66
2022-09-12T09:47:22.000Z,24.56
2022-09-12T09:48:22.000Z,24.45
2022-09-12T09:49:22.000Z,24.26
2022-09-12T09:50:22.000Z,24.37
2022-09-12T09:51:22.000Z,24.60
2022-09-12T09:52:22.000Z,24.82
2022-09-12T09:53:22.000Z,24.84
2022-09-12T09:54:22.000Z,24.87
2022-09-12T09:55:22.000Z,24.86
2022-09-12T09:56:22.000Z,24.67
2022-09-12T09:57:22.000Z,24.45
2022-09-12T09:58:21.000Z,24.18
2022-09-12T09:59:21.000Z,24.04
2022-09-12T10:00:21.000Z,23.92
2022-09-12T10:01:21.000Z,23.69
2022-09-12T10:02:21.000Z,23.47
2022-09-12T10:03:21.000Z,23.47
2022-09-12T10:04:21.000Z,23.32
2022-09-12T10:05:21.000Z,23.12
2022-09-12T10:06:21.000Z,22.96
2022-09-12T10:07:21.000Z,22.81
2022-09-12T10:08:21.000Z,22.60
2022-09-12T10:09:21.000Z,22.51
2022-09-12T10:10:21.000Z,22.56
2022-09-12T10:11:21.000Z,22.61
2022-09-12T10:12:21.000Z,22.54
2022-09-12T10:13:21.000Z,22.45
2022-09-12T10:14:21.000Z,22.30
2022-09-12T10:15:21.000Z,22.20
2022-09-12T10:16:21.000Z,22.14
2022-09-12T10:17:21.000Z,22.05
2022-09-12T10:18:21.000Z,22.05
2022-09-12T10:19:21.000Z,21.91
2022-09-12T10:20:21.000Z,21.81
2022-09-12T10:21:21.000Z,21.73
2022-09-12T10:22:21.000Z,21.66
2022-09-12T10:23:21.000Z,21.58
2022-09-12T10:24:21.000Z,21.53
2022-09-12T10:25:21.000Z,21.46
2022-09-12T10:26:21.000Z,21.37
2022-09-12T10:27:21.000Z,21.28
2022-09-12T10:28:21.000Z,21.24
2022-09-12T10:29:21.000Z,21.21
2022-09-12T10:30:21.000Z,21.21
2022-09-12T10:31:21.000Z,21.18
2022-09-12T10:32:21.000Z,21.21
2022-09-12T10:33:21.000Z,21.21
2022-09-12T10:34:21.000Z,21.16
2022-09-12T10:35:21.000Z,21.15
2022-09-12T10:36:21.000Z,21.16
2022-09-12T10:37:21.000Z,21.19
2022-09-12T10:38:21.000Z,21.12
2022-09-12T10:39:21.000Z,21.21
2022-09-12T10:40:21.000Z,21.52
2022-09-12T10:41:21.000Z,21.89
2022-09-12T10:42:21.000Z,22.06
2022-09-12T10:43:21.000Z,22.19
2022-09-12T10:44:21.000Z,22.24
2022-09-12T10:45:21.000Z,22.20
2022-09-12T10:46:21.000Z,22.19
2022-09-12T10:47:21.000Z,22.20
2022-09-12T10:48:21.000Z,22.38
2022-09-12T10:49:21.000Z,22.72
2022-09-12T10:50:21.000Z,22.97
2022-09-12T10:51:21.000Z,23.26
2022-09-12T10:52:21.000Z,23.59
2022-09-12T10:53:21.000Z,23.84
2022-09-12T10:54:21.000Z,23.99
2022-09-12T10:55:21.000Z,24.18
2022-09-12T10:56:21.000Z,24.41
2022-09-12T10:57:21.000Z,24.56
2022-09-12T10:58:21.000Z,24.56
2022-09-12T10:59:21.000Z,24.55
2022-09-12T11:00:21.000Z,24.45
2022-09-12T11:01:21.000Z,24.19
2022-09-12T11:02:21.000Z,24.06
2022-09-12T11:03:21.000Z,23.99
2022-09-12T11:04:21.000Z,23.77
2022-09-12T11:05:21.000Z,23.62
2022-09-12T11:06:21.000Z,23.41
2022-09-12T11:07:21.000Z,23.29
2022-09-12T11:08:21.000Z,23.09
2022-09-12T11:09:21.000Z,22.96
2022-09-12T11:10:21.000Z,22.75
2022-09-12T11:11:21.000Z,22.59
2022-09-12T11:12:20.000Z,22.48
2022-09-12T11:13:20.000Z,22.33
2022-09-12T11:14:20.000Z,22.20
2022-09-12T11:15:20.000Z,22.09
2022-09-12T11:16:20.000Z,22.04
2022-09-12T11:17:20.000Z,22.01
2022-09-12T11:18:20.000Z,22.14
2022-09-12T11:19:20.000Z,22.33
2022-09-12T11:20:20.000Z,22.60
2022-09-12T11:21:20.000Z,22.79
2022-09-12T11:22:20.000Z,23.03
2022-09-12T11:23:20.000Z,23.32
2022-09-12T11:24:20.000Z,23.47
2022-09-12T11:25:20.000Z,23.63
2022-09-12T11:26:20.000Z,23.81
2022-09-12T11:27:20.000Z,23.89
2022-09-12T11:28:20.000Z,23.89
2022-09-12T11:29:20.000Z,23.75
2022-09-12T11:30:20.000Z,23.72
2022-09-12T11:31:20.000Z,23.71
2022-09-12T11:32:20.000Z,23.59
2022-09-12T11:33:20.000Z,23.47
2022-09-12T11:34:20.000Z,23.34
2022-09-12T11:35:20.000Z,23.26
2022-09-12T11:36:20.000Z,23.15
2022-09-12T11:37:20.000Z,23.06
2022-09-12T11:38:20.000Z,22.99
2022-09-12T11:39:20.000Z,22.81
2022-09-12T11:40:20.000Z,22.78
2022-09-12T11:41:20.000Z,22.89
2022-09-12T11:42:20.000Z,23.00
2022-09-12T11:43:20.000Z,23.21
2022-09-12T11:44:20.000Z,23.45
2022-09-12T11:44:20.000Z,23.45
2022-09-12T11:45:20.000Z,23.68
2022-09-12T11:45:20.000Z,23.68
2022-09-12T11:46:20.000Z,23.92
2022-09-12T11:46:20.000Z,23.92
2022-09-12T11:47:20.000Z,24.08
2022-09-12T11:47:20.000Z,24.08
2022-09-12T11:48:20.000Z,24.31
2022-09-12T11:48:20.000Z,24.31
2022-09-12T11:49:20.000Z,24.31
2022-09-12T11:50:20.000Z,24.31
2022-09-12T11:51:20.000Z,24.37
2022-09-12T11:52:20.000Z,24.36
2022-09-12T11:53:20.000Z,24.46
2022-09-12T11:54:20.000Z,24.55
2022-09-12T11:55:20.000Z,24.68
2022-09-12T11:56:20.000Z,24.98
2022-09-12T11:57:20.000Z,25.09
2022-09-12T11:58:20.000Z,25.12
2022-09-12T11:59:20.000Z,25.22
2022-09-12T12:00:20.000Z,25.38
2022-09-12T12:01:20.000Z,25.54
2022-09-12T12:02:20.000Z,25.69
2022-09-12T12:03:20.000Z,25.90
2022-09-12T12:04:20.000Z,26.00
2022-09-12T12:05:20.000Z,26.19
2022-09-12T12:06:20.000Z,26.39
2022-09-12T12:07:20.000Z,26.51
2022-09-12T12:08:20.000Z,26.59
2022-09-12T12:09:20.000Z,26.65
2022-09-12T12:10:20.000Z,26.68
2022-09-12T12:11:20.000Z,26.73
2022-09-12T12:12:20.000Z,26.83
2022-09-12T12:13:20.000Z,26.86
2022-09-12T12:14:20.000Z,26.87
2022-09-12T12:15:20.000Z,26.83
2022-09-12T12:16:20.000Z,26.65
2022-09-12T12:17:20.000Z,26.42
2022-09-12T12:18:20.000Z,26.27
2022-09-12T12:19:20.000Z,26.13
2022-09-12T12:20:20.000Z,26.06
2022-09-12T12:21:20.000Z,26.11
2022-09-12T12:22:20.000Z,26.12
2022-09-12T12:23:20.000Z,26.24
2022-09-12T12:24:20.000Z,26.34
2022-09-12T12:25:19.000Z,26.34
2022-09-12T12:26:19.000Z,26.29
2022-09-12T12:27:19.000Z,26.13
2022-09-12T12:28:19.000Z,25.98
2022-09-12T12:29:19.000Z,25.81
2022-09-12T12:30:19.000Z,25.60
2022-09-12T12:31:19.000Z,25.42
2022-09-12T12:32:19.000Z,25.22
2022-09-12T12:33:19.000Z,24.87
2022-09-12T12:34:19.000Z,24.66
2022-09-12T12:35:19.000Z,24.52
2022-09-12T12:36:19.000Z,24.37
2022-09-12T12:37:19.000Z,24.24
2022-09-12T12:38:19.000Z,24.15
2022-09-12T12:39:19.000Z,24.04
2022-09-12T12:40:19.000Z,23.96
2022-09-12T12:41:19.000Z,23.89
2022-09-12T12:42:19.000Z,23.81